Time;durP1;ratioP1;P1;durP2;ratioP2;P2;SDS_P1;SDS_P2;PMS_P1;PMS_P2;Temp;Humidity;BMP_temperature;BMP_pressure;BME280_temperature;BME280_humidity;BME280_pressure;Samples;Min_cycle;Max_cycle;Signal;HPM_P1;HPM_P2
2021/04/16 00:00:49;;;;;;;5.72;1.95;;;;;;;3.05;86.18;101734.47;4963913;28;20071;-69
2021/04/16 00:03:16;;;;;;;9.30;2.63;;;;;;;3.00;86.59;101731.06;4963752;28;20154;-68
2021/04/16 00:05:43;;;;;;;7.75;1.92;;;;;;;3.02;86.58;101729.31;4962739;28;20138;-67
2021/04/16 00:08:18;;;;;;;5.07;1.95;;;;;;;3.24;85.49;101736.03;4980433;28;20465;-68
2021/04/16 00:10:48;;;;;;;6.03;2.00;;;;;;;3.01;85.79;101746.66;4953276;28;20049;-69
2021/04/16 00:13:17;;;;;;;6.10;2.08;;;;;;;2.97;86.07;101736.28;4968856;28;20085;-69
2021/04/16 00:15:44;;;;;;;14.00;2.40;;;;;;;3.01;85.02;101736.25;4953820;28;20709;-69
2021/04/16 00:18:14;;;;;;;8.00;2.42;;;;;;;2.96;84.99;101739.78;4977851;28;20102;-69
2021/04/16 00:20:42;;;;;;;4.75;2.08;;;;;;;2.96;85.26;101727.63;4989570;28;20209;-69
2021/04/16 00:23:09;;;;;;;3.63;1.85;;;;;;;3.06;85.96;101728.38;4955156;28;20438;-69
2021/04/16 00:25:36;;;;;;;7.00;1.77;;;;;;;2.91;86.04;101728.56;4944934;28;20058;-69
2021/04/16 00:28:04;;;;;;;4.53;1.70;;;;;;;3.03;84.65;101726.69;4956544;28;20051;-69
2021/04/16 00:30:44;;;;;;;5.93;1.63;;;;;;;2.98;85.12;101735.44;4953973;28;20053;-68
2021/04/16 00:33:11;;;;;;;5.78;1.70;;;;;;;3.05;84.19;101721.47;4953440;28;20051;-69
2021/04/16 00:35:38;;;;;;;4.10;1.50;;;;;;;3.03;84.10;101718.91;4971175;28;20047;-68
2021/04/16 00:38:07;;;;;;;4.97;1.67;;;;;;;3.08;84.13;101718.00;4956940;28;20133;-72
2021/04/16 00:40:55;;;;;;;5.57;1.70;;;;;;;2.97;83.77;101712.88;4954992;28;20105;-69
2021/04/16 00:43:23;;;;;;;3.92;1.65;;;;;;;2.97;84.21;101713.75;4964163;28;20059;-69
2021/04/16 00:45:55;;;;;;;4.47;1.55;;;;;;;2.91;84.25;101713.81;4949086;28;20070;-68
2021/04/16 00:48:34;;;;;;;10.18;1.73;;;;;;;3.02;85.03;101711.97;4952200;28;20077;-69
2021/04/16 00:51:04;;;;;;;2.85;1.50;;;;;;;3.08;82.40;101716.25;4936128;28;20046;-69
2021/04/16 00:53:32;;;;;;;5.57;1.98;;;;;;;3.01;83.33;101709.38;4950299;28;20519;-69
2021/04/16 00:56:00;;;;;;;3.58;2.08;;;;;;;3.00;83.85;101707.66;4950474;28;20090;-69
2021/04/16 00:58:30;;;;;;;6.70;1.83;;;;;;;3.07;82.23;101701.53;4962247;28;20126;-69
2021/04/16 01:01:00;;;;;;;3.60;1.42;;;;;;;2.99;82.78;101704.19;4949298;28;20471;-69
2021/04/16 01:03:27;;;;;;;8.82;1.70;;;;;;;2.99;83.19;101704.19;4960551;28;20689;-69
2021/04/16 01:05:57;;;;;;;4.38;1.80;;;;;;;3.12;81.73;101704.94;4937982;28;20529;-68
2021/04/16 01:08:24;;;;;;;4.93;1.40;;;;;;;3.18;81.49;101710.06;4958515;28;20034;-68
2021/04/16 01:10:51;;;;;;;3.70;1.55;;;;;;;3.11;81.20;101708.41;4953379;28;20055;-69
2021/04/16 01:13:19;;;;;;;4.53;1.55;;;;;;;3.16;81.14;101708.38;4951304;28;20063;-69
2021/04/16 01:15:53;;;;;;;3.63;1.55;;;;;;;3.12;81.35;101704.94;4975368;28;20057;-69
2021/04/16 01:18:23;;;;;;;4.35;1.50;;;;;;;3.11;81.92;101707.53;4976561;28;20559;-69
2021/04/16 01:20:51;;;;;;;11.13;1.73;;;;;;;3.19;80.98;101706.56;4959868;28;20054;-69
2021/04/16 01:23:28;;;;;;;5.40;1.65;;;;;;;3.38;80.66;101698.53;4958553;28;20077;-67
2021/04/16 01:26:31;;;;;;;3.25;1.10;;;;;;;3.11;81.16;101702.31;4938140;28;20069;-68
2021/04/16 01:28:58;;;;;;;5.55;1.63;;;;;;;3.16;79.52;101700.56;4949578;28;20081;-68
2021/04/16 01:31:27;;;;;;;5.88;1.95;;;;;;;3.16;80.39;101703.16;4967761;28;20147;-68
2021/04/16 01:33:54;;;;;;;2.50;1.33;;;;;;;3.12;80.00;101701.47;4955851;28;20275;-68
2021/04/16 01:36:30;;;;;;;6.65;1.75;;;;;;;3.12;80.31;101694.53;4939777;28;20127;-69
2021/04/16 01:38:58;;;;;;;9.95;1.33;;;;;;;3.22;79.45;101703.09;4954534;28;20137;-68
2021/04/16 01:41:26;;;;;;;8.40;1.60;;;;;;;3.19;79.83;101701.38;4924370;28;20069;-69
2021/04/16 01:43:56;;;;;;;4.00;1.48;;;;;;;3.23;79.04;101708.25;4937450;28;20548;-69
2021/04/16 01:46:24;;;;;;;6.70;2.53;;;;;;;3.21;79.16;101706.56;4941410;28;20141;-69
2021/04/16 01:48:51;;;;;;;4.15;1.30;;;;;;;3.28;79.18;101705.59;4951587;28;20053;-70
2021/04/16 01:51:22;;;;;;;3.80;1.50;;;;;;;3.47;77.71;101695.84;4949485;28;20490;-69
2021/04/16 01:54:02;;;;;;;2.30;1.45;;;;;;;3.34;77.94;101695.16;4950932;28;20053;-68
2021/04/16 01:56:28;;;;;;;4.47;1.08;;;;;;;3.41;77.29;101691.56;4967897;28;20055;-71
2021/04/16 01:58:55;;;;;;;5.65;1.65;;;;;;;3.29;77.86;101694.34;4962912;28;20062;-68
2021/04/16 02:01:22;;;;;;;6.78;1.15;;;;;;;3.32;77.19;101685.63;4968210;28;20181;-68
2021/04/16 02:03:49;;;;;;;4.53;1.40;;;;;;;3.31;77.51;101684.75;4969408;28;20054;-70
2021/04/16 02:06:15;;;;;;;7.00;1.35;;;;;;;3.43;76.62;101700.22;4945421;28;20082;-68
2021/04/16 02:08:43;;;;;;;5.05;1.30;;;;;;;3.38;76.46;101690.75;4972192;28;20124;-70
2021/04/16 02:11:09;;;;;;;3.40;1.40;;;;;;;3.47;75.84;101696.72;4959186;28;20061;-68
2021/04/16 02:13:36;;;;;;;4.97;1.73;;;;;;;3.42;76.23;101693.31;4954163;28;20067;-69
2021/04/16 02:16:04;;;;;;;7.38;1.52;;;;;;;3.37;76.50;101687.28;4959438;28;20141;-70
2021/04/16 02:18:31;;;;;;;5.20;1.40;;;;;;;3.40;76.72;101686.38;4973581;28;20102;-68
2021/04/16 02:20:58;;;;;;;2.50;1.20;;;;;;;3.46;76.19;101688.91;4984011;28;20066;-70
2021/04/16 02:23:25;;;;;;;6.40;1.40;;;;;;;3.40;76.21;101684.66;4981226;28;20119;-69
2021/04/16 02:25:51;;;;;;;4.70;1.35;;;;;;;3.40;76.49;101679.44;4961944;28;20509;-70
2021/04/16 02:28:18;;;;;;;5.18;1.67;;;;;;;3.42;76.40;101676.81;4971729;28;20126;-69
2021/04/16 02:30:46;;;;;;;5.22;1.40;;;;;;;3.45;76.37;101684.59;4968139;28;20133;-69
2021/04/16 02:33:13;;;;;;;5.68;2.63;;;;;;;3.47;75.79;101683.69;4976253;28;20082;-69
2021/04/16 02:35:41;;;;;;;4.20;1.50;;;;;;;3.48;76.01;101687.16;4974886;23;20093;-74
2021/04/16 02:38:08;;;;;;;3.17;1.25;;;;;;;3.54;76.22;101692.28;4988415;28;20114;-73
2021/04/16 02:40:34;;;;;;;5.82;1.60;;;;;;;3.55;75.55;101692.25;4972210;28;20145;-74
2021/04/16 02:43:01;;;;;;;3.30;1.10;;;;;;;3.54;75.06;101689.69;4989310;28;20072;-74
2021/04/16 02:45:28;;;;;;;4.95;1.20;;;;;;;3.49;75.92;101694.94;4989697;28;20106;-74
2021/04/16 02:47:56;;;;;;;4.53;1.70;;;;;;;3.62;75.59;101689.59;4984777;28;20074;-74
2021/04/16 02:50:27;;;;;;;6.43;2.42;;;;;;;3.63;75.77;101680.88;4987698;28;20129;-72
2021/04/16 02:52:53;;;;;;;5.15;1.30;;;;;;;3.58;75.66;101680.94;4989205;28;20136;-72
2021/04/16 02:55:20;;;;;;;3.92;1.17;;;;;;;3.62;74.89;101682.63;4987361;28;20050;-73
2021/04/16 02:57:47;;;;;;;4.18;1.33;;;;;;;3.62;75.20;101677.44;4989260;28;20082;-72
2021/04/16 03:00:23;;;;;;;6.72;1.67;;;;;;;3.50;76.01;101678.44;4969679;28;20101;-71
2021/04/16 03:02:49;;;;;;;;;;;;;;;3.41;76.41;101683.75;4968000;28;20137;-73
2021/04/16 03:05:16;;;;;;;5.82;1.25;;;;;;;3.54;75.56;101680.13;4987959;28;20003;-74
2021/04/16 03:07:43;;;;;;;6.50;1.25;;;;;;;3.54;75.62;101680.13;4990810;28;20129;-74
2021/04/16 03:10:12;;;;;;;3.80;1.25;;;;;;;3.51;76.50;101685.38;4991531;28;20055;-73
2021/04/16 03:12:38;;;;;;;7.72;1.20;;;;;;;3.54;75.55;101682.72;4981725;28;20503;-73
2021/04/16 03:15:06;;;;;;;5.47;1.38;;;;;;;3.60;75.61;101680.91;4990077;28;20543;-73
2021/04/16 03:17:33;;;;;;;7.35;1.40;;;;;;;3.51;75.91;101681.91;4985269;28;20569;-76
2021/04/16 03:20:01;;;;;;;9.25;2.97;;;;;;;3.46;76.14;101675.88;4986578;28;20527;-73
2021/04/16 03:22:27;;;;;;;6.80;1.77;;;;;;;3.51;76.07;101684.50;5005875;28;20131;-74
2021/04/16 03:24:54;;;;;;;6.32;1.60;;;;;;;3.44;76.89;101686.34;4984938;28;20069;-75
2021/04/16 03:27:21;;;;;;;3.35;1.50;;;;;;;3.42;76.94;101679.41;4989912;28;20188;-74
2021/04/16 03:29:47;;;;;;;3.92;1.35;;;;;;;3.38;76.98;101678.63;4988689;28;20094;-73
2021/04/16 03:32:14;;;;;;;3.83;1.35;;;;;;;3.43;76.95;101682.00;4984701;28;20121;-73
2021/04/16 03:34:41;;;;;;;3.25;1.23;;;;;;;3.42;77.07;101679.41;4987260;28;20125;-72
2021/04/16 03:37:08;;;;;;;8.55;1.55;;;;;;;3.41;76.81;101686.38;4986483;28;20138;-73
2021/04/16 03:39:35;;;;;;;6.45;1.50;;;;;;;3.44;76.72;101682.88;4984030;28;20138;-72
2021/04/16 03:42:02;;;;;;;6.38;1.52;;;;;;;3.40;76.77;101684.66;4985903;28;20042;-73
2021/04/16 03:44:29;;;;;;;5.72;1.70;;;;;;;3.47;76.38;101686.31;4988712;28;20062;-74
2021/04/16 03:46:56;;;;;;;5.82;2.03;;;;;;;3.44;76.80;101685.47;4984994;28;20579;-73
2021/04/16 03:49:24;;;;;;;6.78;1.85;;;;;;;3.49;76.83;101687.13;4972671;28;20050;-72
2021/04/16 03:51:56;;;;;;;6.60;1.40;;;;;;;3.51;76.31;101692.31;4981480;28;20102;-71
2021/04/16 03:54:24;;;;;;;5.53;2.17;;;;;;;3.39;76.76;101693.34;4994384;28;20046;-71
2021/04/16 03:56:52;;;;;;;3.97;1.60;;;;;;;3.40;77.20;101687.25;4994244;28;20174;-71
2021/04/16 03:59:20;;;;;;;3.55;1.20;;;;;;;3.39;77.18;101680.31;4985900;28;20120;-72
2021/04/16 04:01:48;;;;;;;5.25;1.67;;;;;;;3.29;77.71;101684.78;4985240;28;20193;-71
2021/04/16 04:04:16;;;;;;;6.32;1.70;;;;;;;3.33;77.12;101690.78;4987031;28;20050;-75
2021/04/16 04:06:43;;;;;;;5.07;1.80;;;;;;;3.33;77.18;101692.53;4981176;28;20065;-73
2021/04/16 04:09:10;;;;;;;4.60;1.35;;;;;;;3.25;77.78;101690.03;4979567;28;20062;-72
2021/04/16 04:11:37;;;;;;;6.82;1.27;;;;;;;3.20;78.39;101686.63;4992381;28;20073;-75
2021/04/16 04:14:04;;;;;;;3.60;1.25;;;;;;;3.28;78.29;101682.19;4997692;28;20141;-73
2021/04/16 04:16:47;;;;;;;6.32;1.67;;;;;;;3.32;77.66;101696.03;4978942;28;20059;-73
2021/04/16 04:19:14;;;;;;;5.03;1.98;;;;;;;3.35;78.25;101686.44;4985873;28;20081;-75
2021/04/16 04:21:41;;;;;;;5.55;1.48;;;;;;;3.39;77.89;101688.13;4983425;28;20058;-74
2021/04/16 04:24:08;;;;;;;3.60;1.35;;;;;;;3.47;77.71;101690.66;4970485;28;20141;-72
2021/04/16 04:26:34;;;;;;;6.00;1.48;;;;;;;3.37;78.09;101689.03;4988265;28;20490;-76
2021/04/16 04:29:01;;;;;;;5.53;1.60;;;;;;;3.47;78.09;101694.13;4971977;28;20423;-74
2021/04/16 04:31:28;;;;;;;8.07;1.98;;;;;;;3.40;78.65;101684.66;4970624;28;20050;-74
2021/04/16 04:33:55;;;;;;;8.70;2.53;;;;;;;3.46;78.32;101697.56;4986312;28;20591;-73
2021/04/16 04:36:22;;;;;;;5.15;1.70;;;;;;;3.53;78.34;101690.56;4983540;28;20046;-75
2021/04/16 04:38:52;;;;;;;5.20;1.48;;;;;;;3.49;77.92;101687.13;4983177;28;20085;-75
2021/04/16 04:41:19;;;;;;;6.28;1.83;;;;;;;3.44;78.52;101691.53;5002023;28;20056;-72
2021/04/16 04:43:46;;;;;;;6.07;1.75;;;;;;;3.34;79.40;101684.72;4986809;28;20050;-73
2021/04/16 04:46:13;;;;;;;8.15;1.63;;;;;;;3.45;78.49;101695.84;4969891;28;20511;-75
2021/04/16 04:48:40;;;;;;;5.32;1.65;;;;;;;3.50;78.54;101691.44;4986536;28;20061;-75
2021/04/16 04:51:07;;;;;;;5.22;1.52;;;;;;;3.41;78.79;101686.38;4986347;28;20520;-75
2021/04/16 04:53:34;;;;;;;9.15;1.63;;;;;;;3.58;78.88;101690.50;5002977;28;20104;-73
2021/04/16 04:56:01;;;;;;;6.90;1.70;;;;;;;3.64;78.30;101695.63;4985731;28;20161;-75
2021/04/16 04:58:28;;;;;;;11.73;1.77;;;;;;;3.67;78.57;101693.84;5002226;28;20075;-74
2021/04/16 05:00:55;;;;;;;5.95;1.73;;;;;;;3.75;77.90;101698.97;4980289;28;20142;-74
2021/04/16 05:03:22;;;;;;;6.20;1.42;;;;;;;3.83;77.45;101696.22;4986377;28;20044;-73
2021/04/16 05:05:48;;;;;;;4.63;1.45;;;;;;;3.54;78.18;101703.56;4965426;28;20054;-73
2021/04/16 05:08:15;;;;;;;8.73;1.88;;;;;;;3.47;79.23;101707.13;4985399;28;20054;-76
2021/04/16 05:10:42;;;;;;;6.43;1.60;;;;;;;3.64;78.62;101704.28;4985837;28;20485;-72
2021/04/16 05:13:08;;;;;;;5.47;1.70;;;;;;;3.59;78.30;101700.88;4985305;28;20047;-72
2021/04/16 05:15:35;;;;;;;4.93;1.90;;;;;;;3.54;79.10;101703.56;4985668;28;20659;-73
2021/04/16 05:18:02;;;;;;;7.22;1.88;;;;;;;3.65;78.12;101703.44;4983905;28;20141;-73
2021/04/16 05:20:29;;;;;;;7.35;1.38;;;;;;;3.76;78.21;101706.75;4989196;28;20137;-73
2021/04/16 05:22:55;;;;;;;7.15;1.70;;;;;;;3.72;78.04;101699.00;4987675;28;20046;-75
2021/04/16 05:25:22;;;;;;;5.90;1.80;;;;;;;3.93;77.78;101700.44;4989285;28;20058;-76
2021/04/16 05:27:49;;;;;;;4.95;1.75;;;;;;;3.98;77.51;101706.44;4987570;28;20097;-74
2021/04/16 05:30:16;;;;;;;8.88;1.92;;;;;;;4.13;76.90;101698.41;4981970;28;20073;-75
2021/04/16 05:32:44;;;;;;;5.85;1.65;;;;;;;3.99;76.97;101700.34;4968269;28;20413;-73
2021/04/16 05:35:11;;;;;;;4.47;1.25;;;;;;;3.93;77.88;101697.84;4971886;28;20054;-74
2021/04/16 05:37:38;;;;;;;7.28;1.77;;;;;;;4.00;77.41;101699.47;4984570;28;20226;-74
2021/04/16 05:40:07;;;;;;;7.82;1.88;;;;;;;4.03;77.83;101704.63;4985536;28;20069;-73
2021/04/16 05:42:34;;;;;;;6.43;1.70;;;;;;;4.04;77.47;101701.13;5001794;28;20060;-72
2021/04/16 05:45:01;;;;;;;7.63;1.90;;;;;;;4.00;77.69;101697.72;4989493;28;20054;-74
2021/04/16 05:47:29;;;;;;;9.65;2.15;;;;;;;4.14;77.35;101697.50;4987723;28;20140;-76
2021/04/16 05:49:56;;;;;;;8.35;1.70;;;;;;;4.29;76.07;101704.25;5001976;28;20323;-74
2021/04/16 05:52:23;;;;;;;8.40;2.75;;;;;;;4.29;76.14;101706.84;4983964;28;20666;-74
2021/04/16 05:54:49;;;;;;;7.03;1.90;;;;;;;4.07;77.63;101709.78;5004153;28;20042;-74
2021/04/16 05:57:16;;;;;;;9.98;3.58;;;;;;;4.34;76.50;101701.56;4989970;28;20157;-71
2021/04/16 05:59:43;;;;;;;10.13;2.50;;;;;;;4.37;76.08;101704.09;4988421;28;20130;-75
2021/04/16 06:02:23;;;;;;;9.35;2.10;;;;;;;4.43;75.91;101702.28;4995691;28;20380;-74
2021/04/16 06:04:50;;;;;;;6.95;1.60;;;;;;;4.40;75.95;101698.84;4991791;28;20129;-70
2021/04/16 06:07:22;;;;;;;9.30;2.35;;;;;;;4.42;76.07;101710.13;4984189;28;20098;-75
2021/04/16 06:09:51;;;;;;;7.43;2.30;;;;;;;4.54;75.80;101709.91;4984027;28;20062;-74
2021/04/16 06:12:18;;;;;;;11.85;2.67;;;;;;;4.71;75.00;101707.03;4985349;28;20064;-75
2021/04/16 06:14:45;;;;;;;6.68;1.60;;;;;;;4.70;74.21;101715.75;4985570;28;20353;-73
2021/04/16 06:17:14;;;;;;;4.45;1.60;;;;;;;4.56;75.53;101714.22;4980423;28;20524;-71
2021/04/16 06:19:41;;;;;;;10.02;2.35;;;;;;;4.84;74.38;101721.59;4986865;28;20097;-72
2021/04/16 06:22:08;;;;;;;7.03;1.80;;;;;;;4.98;74.08;101721.34;4991765;28;20089;-74
2021/04/16 06:24:35;;;;;;;14.77;2.40;;;;;;;5.04;73.89;101716.88;5006513;28;20057;-72
2021/04/16 06:27:02;;;;;;;6.28;1.52;;;;;;;5.19;72.18;101722.69;4971292;28;20374;-73
2021/04/16 06:29:30;;;;;;;7.70;2.47;;;;;;;5.63;70.85;101718.31;4986845;28;20137;-72
2021/04/16 06:31:57;;;;;;;3.88;1.20;;;;;;;5.60;70.72;101711.41;5002654;28;20149;-72
2021/04/16 06:34:24;;;;;;;6.05;1.52;;;;;;;5.82;70.67;101709.22;5005513;28;20064;-72
2021/04/16 06:36:51;;;;;;;4.88;1.70;;;;;;;6.56;67.88;101704.00;4985608;28;20089;-73
2021/04/16 06:39:18;;;;;;;8.18;1.90;;;;;;;7.10;65.47;101710.44;4986057;28;20101;-73
2021/04/16 06:41:47;;;;;;;5.28;1.20;;;;;;;7.39;65.24;101708.81;4988334;28;20384;-74
2021/04/16 06:44:31;;;;;;;3.88;1.70;;;;;;;7.52;64.03;101708.41;4988146;28;20499;-72
2021/04/16 06:47:29;;;;;;;6.50;1.63;;;;;;;7.50;63.99;101709.34;4988571;28;20052;-72
2021/04/16 06:49:57;;;;;;;5.13;1.60;;;;;;;7.69;62.20;101717.53;4985591;28;20050;-72
2021/04/16 06:52:32;;;;;;;4.32;1.23;;;;;;;8.21;60.45;101711.56;4986085;28;20050;-69
2021/04/16 06:55:04;;;;;;;6.85;1.60;;;;;;;7.92;61.28;101708.97;4984567;28;20066;-72
2021/04/16 06:57:38;;;;;;;5.40;1.60;;;;;;;7.24;63.20;101710.94;4985894;28;20363;-70
2021/04/16 07:00:28;;;;;;;5.85;1.55;;;;;;;7.97;61.90;101707.94;4967900;28;20095;-72
2021/04/16 07:03:03;;;;;;;12.88;2.35;;;;;;;7.81;61.12;101709.31;4976451;28;20394;-73
2021/04/16 07:05:50;;;;;;;6.23;1.90;;;;;;;7.90;61.90;101706.41;4984802;28;20145;-72
2021/04/16 07:08:25;;;;;;;7.07;1.70;;;;;;;7.18;62.55;101718.97;4971312;28;20078;-73
2021/04/16 07:10:54;;;;;;;3.78;1.30;;;;;;;6.88;64.45;101706.69;5003929;28;20467;-74
2021/04/16 07:13:32;;;;;;;4.85;1.48;;;;;;;6.67;65.95;101708.13;4988493;28;20050;-70
2021/04/16 07:15:59;;;;;;;7.80;1.35;;;;;;;6.25;67.93;101714.34;5000368;28;20050;-72
2021/04/16 07:18:37;;;;;;;6.07;1.90;;;;;;;6.53;67.05;101711.94;4989821;28;20043;-72
2021/04/16 07:21:05;;;;;;;9.15;1.42;;;;;;;6.11;67.69;101710.34;5000637;28;20054;-71
2021/04/16 07:23:41;;;;;;;8.85;1.38;;;;;;;6.20;68.01;101720.56;4991243;28;20125;-73
2021/04/16 07:26:42;;;;;;;5.63;1.50;;;;;;;5.99;69.36;101719.31;5001235;28;20464;-70
2021/04/16 07:29:15;;;;;;;9.80;1.70;;;;;;;6.03;69.53;101715.72;5002831;28;20470;-69
2021/04/16 07:31:50;;;;;;;3.60;1.40;;;;;;;5.71;70.73;101716.41;4973063;28;20555;-70
2021/04/16 07:34:37;;;;;;;6.82;1.63;;;;;;;6.25;68.02;101722.19;4988811;28;20352;-71
2021/04/16 07:37:12;;;;;;;6.07;1.60;;;;;;;7.07;66.17;101714.03;4989247;28;20517;-70
2021/04/16 07:39:49;;;;;;;5.95;1.67;;;;;;;7.03;65.13;101715.00;4984181;28;20150;-70
2021/04/16 07:42:21;;;;;;;9.75;1.80;;;;;;;6.48;66.78;101719.00;4988091;28;20069;-70
2021/04/16 07:45:03;;;;;;;7.72;1.52;;;;;;;6.87;65.24;101724.16;4986872;28;20049;-72
2021/04/16 07:47:33;;;;;;;4.68;1.45;;;;;;;6.97;64.42;101712.53;4989024;28;20081;-70
2021/04/16 07:50:07;;;;;;;5.50;1.48;;;;;;;6.60;65.55;101718.72;5004137;28;20054;-71
2021/04/16 07:52:40;;;;;;;5.50;1.42;;;;;;;6.29;66.57;101715.13;5000594;28;20401;-72
2021/04/16 07:55:09;;;;;;;4.22;1.40;;;;;;;6.34;66.28;101713.25;4989515;28;20065;-71
2021/04/16 07:57:39;;;;;;;5.38;1.90;;;;;;;6.41;66.59;101720.06;4990640;28;20080;-70
2021/04/16 08:00:27;;;;;;;5.40;1.83;;;;;;;6.43;66.75;101722.66;4990264;28;20042;-71
2021/04/16 08:03:17;;;;;;;7.18;1.75;;;;;;;6.87;65.11;101718.06;4983126;28;20108;-71
2021/04/16 08:05:57;;;;;;;5.13;1.58;;;;;;;7.00;64.62;101717.69;4988877;28;20288;-73
2021/04/16 08:08:29;;;;;;;3.28;1.52;;;;;;;6.88;64.85;101725.00;5001337;28;20073;-73
2021/04/16 08:11:05;;;;;;;12.23;1.88;;;;;;;6.69;65.97;101717.63;5002777;28;20081;-72
2021/04/16 08:13:37;;;;;;;5.25;1.73;;;;;;;6.90;65.15;101729.31;4991700;28;20085;-72
2021/04/16 08:16:21;;;;;;;12.30;1.92;;;;;;;6.48;65.77;101728.63;4983307;28;20064;-71
2021/04/16 08:18:56;;;;;;;7.55;1.67;;;;;;;6.28;66.63;101731.72;4987204;28;20058;-71
2021/04/16 08:21:24;;;;;;;7.10;1.48;;;;;;;6.11;66.27;101737.34;4986802;28;20050;-72
2021/04/16 08:24:19;;;;;;;4.65;1.63;;;;;;;6.32;66.29;101731.63;5001638;28;20046;-72
2021/04/16 08:26:56;;;;;;;8.07;1.90;;;;;;;6.37;65.56;101726.28;4981262;28;20130;-72
2021/04/16 08:29:26;;;;;;;2.70;1.45;;;;;;;6.32;65.97;101733.38;5000667;28;20042;-70
2021/04/16 08:32:28;;;;;;;5.80;1.20;;;;;;;6.58;64.71;101730.13;4970054;28;20424;-69
2021/04/16 08:35:18;;;;;;;4.90;1.52;;;;;;;6.55;65.39;101728.44;4988090;28;20516;-71
2021/04/16 08:37:50;;;;;;;6.63;1.65;;;;;;;6.74;64.94;101727.97;4983100;28;20129;-70
2021/04/16 08:40:24;;;;;;;6.20;1.67;;;;;;;7.12;62.78;101724.38;4998195;28;20078;-69
2021/04/16 08:42:51;;;;;;;5.95;1.40;;;;;;;7.45;62.15;101727.81;4996417;23;20046;-68
2021/04/16 08:45:22;;;;;;;21.17;1.83;;;;;;;7.56;61.48;101728.34;4987748;28;20050;-69
2021/04/16 08:47:56;;;;;;;3.72;1.48;;;;;;;7.60;62.01;101729.97;4981206;28;20084;-68
2021/04/16 08:50:29;;;;;;;3.63;1.48;;;;;;;7.85;61.13;101726.66;4984109;28;20057;-68
2021/04/16 08:52:59;;;;;;;5.10;1.77;;;;;;;8.29;60.30;101730.53;4957565;28;20130;-69
2021/04/16 08:55:38;;;;;;;6.28;1.63;;;;;;;8.83;59.04;101726.19;4987307;28;20074;-68
2021/04/16 08:58:25;;;;;;;5.10;1.75;;;;;;;8.01;59.07;101730.50;4955205;28;20134;-69
2021/04/16 09:00:56;;;;;;;2.45;1.13;;;;;;;8.12;59.27;101738.06;4969072;28;20108;-68
2021/04/16 09:03:39;;;;;;;4.40;1.45;;;;;;;8.09;59.57;101731.16;4971396;28;20042;-70
2021/04/16 09:06:44;;;;;;;5.70;1.52;;;;;;;8.57;58.78;101725.28;4985801;28;20039;-68
2021/04/16 09:09:13;;;;;;;7.25;1.50;;;;;;;8.48;59.25;101724.72;4972709;28;20062;-70
2021/04/16 09:11:43;;;;;;;7.07;1.80;;;;;;;9.44;56.50;101710.84;4978803;28;20046;-67
2021/04/16 09:14:25;;;;;;;8.18;1.65;;;;;;;10.22;53.12;101725.41;4968300;28;20046;-69
2021/04/16 09:16:58;;;;;;;7.22;1.60;;;;;;;9.83;53.37;101723.44;4984819;28;20054;-68
2021/04/16 09:19:25;;;;;;;6.13;1.55;;;;;;;10.06;53.46;101730.44;4968545;28;20038;-69
2021/04/16 09:22:04;;;;;;;4.18;1.58;;;;;;;9.38;53.20;101718.97;4988999;28;20507;-69
2021/04/16 09:24:50;;;;;;;5.55;1.65;;;;;;;8.56;57.15;101718.31;4985978;28;20563;-70
2021/04/16 09:27:22;;;;;;;4.57;1.50;;;;;;;8.36;58.15;101716.31;4988018;28;20110;-70
2021/04/16 09:29:49;;;;;;;7.53;2.17;;;;;;;9.00;56.48;101705.41;4994793;28;20106;-69
2021/04/16 09:32:35;;;;;;;7.65;1.50;;;;;;;8.85;55.53;101714.69;4978155;28;20054;-71
2021/04/16 09:35:12;;;;;;;8.40;3.45;;;;;;;9.28;54.71;101712.34;4996112;28;20130;-68
2021/04/16 09:37:45;;;;;;;5.18;1.67;;;;;;;10.05;52.59;101705.91;4977903;28;20039;-70
2021/04/16 09:40:18;;;;;;;7.97;1.42;;;;;;;9.55;53.54;101718.38;4967707;28;20050;-68
2021/04/16 09:42:54;;;;;;;5.72;1.40;;;;;;;9.51;52.92;101716.75;4994223;28;20062;-68
2021/04/16 09:45:29;;;;;;;8.02;2.70;;;;;;;9.47;51.64;101699.38;4995614;28;20110;-68
2021/04/16 09:47:59;;;;;;;6.70;2.33;;;;;;;8.52;55.90;101711.44;4996509;28;20082;-68
2021/04/16 09:50:41;;;;;;;5.93;1.40;;;;;;;9.15;54.20;101703.19;4969110;28;20215;-69
2021/04/16 09:53:31;;;;;;;6.22;1.20;;;;;;;9.75;52.61;101707.09;4976498;28;20489;-69
2021/04/16 09:56:00;;;;;;;4.20;1.70;;;;;;;10.06;52.39;101710.25;4979361;28;20122;-67
2021/04/16 09:58:30;;;;;;;7.03;1.50;;;;;;;9.54;52.28;101703.47;4979989;28;20054;-69
2021/04/16 10:00:57;;;;;;;4.88;1.55;;;;;;;9.48;52.91;101706.34;4975838;28;20355;-67
2021/04/16 10:03:32;;;;;;;10.32;1.88;;;;;;;9.78;51.70;101710.47;4997182;28;20286;-70
2021/04/16 10:06:25;;;;;;;5.90;2.00;;;;;;;9.15;52.72;101716.31;4991848;28;20078;-69
2021/04/16 10:09:20;;;;;;;4.10;1.40;;;;;;;9.58;52.10;101711.19;4964048;28;20102;-68
2021/04/16 10:11:57;;;;;;;5.68;1.27;;;;;;;9.19;52.33;101707.44;4971859;28;20096;-70
2021/04/16 10:14:24;;;;;;;8.10;1.77;;;;;;;9.01;53.36;101716.81;4986997;28;20050;-70
2021/04/16 10:16:55;;;;;;;7.68;2.70;;;;;;;10.03;51.24;101712.13;4970363;28;20074;-69
2021/04/16 10:19:29;;;;;;;5.00;1.25;;;;;;;9.63;51.21;101708.41;4971310;28;20046;-68
2021/04/16 10:21:57;;;;;;;7.88;2.30;;;;;;;10.02;51.96;101700.75;4951270;28;20054;-69
2021/04/16 10:45:25;;;;;;;5.07;1.17;;;;;;;10.70;46.87;101676.97;4964233;28;20054;-70
2021/04/16 10:56:54;;;;;;;7.07;1.20;;;;;;;9.89;43.65;101671.44;4982401;28;20050;-69
2021/04/16 11:11:54;;;;;;;2.67;1.00;;;;;;;9.40;46.21;101667.19;4977994;28;20078;-70
2021/04/16 11:17:06;;;;;;;6.00;1.25;;;;;;;9.44;47.01;101671.44;4964702;28;20133;-68
2021/04/16 11:45:53;;;;;;;5.35;1.25;;;;;;;10.60;45.86;101665.97;4988628;28;20394;-69
2021/04/16 12:41:21;;;;;;;6.13;1.80;;;;;;;11.89;40.99;101635.53;4968927;28;20192;-70
2021/04/16 12:43:48;;;;;;;10.77;2.10;;;;;;;12.06;40.68;101639.97;4956145;28;20042;-69
2021/04/16 12:46:17;;;;;;;8.13;2.05;;;;;;;11.42;41.51;101645.63;4971375;28;20105;-68
2021/04/16 12:48:44;;;;;;;5.35;1.70;;;;;;;11.02;41.71;101629.00;4996510;28;20077;-69
2021/04/16 12:51:12;;;;;;;10.13;1.98;;;;;;;11.75;41.06;101629.16;4995921;28;20178;-69
2021/04/16 12:53:39;;;;;;;5.70;1.98;;;;;;;11.84;40.33;101631.38;4988541;28;20046;-70
2021/04/16 12:56:08;;;;;;;3.40;1.27;;;;;;;11.81;40.61;101636.78;4985770;28;20576;-69
2021/04/16 12:58:40;;;;;;;4.57;1.48;;;;;;;11.87;40.27;101628.59;4967875;28;20050;-70
2021/04/16 13:01:09;;;;;;;5.55;1.52;;;;;;;11.23;41.73;101629.81;4965960;28;20047;-69
2021/04/16 13:03:40;;;;;;;4.20;1.23;;;;;;;11.28;41.98;101624.34;4988604;28;20504;-69
2021/04/16 13:06:34;;;;;;;5.70;1.52;;;;;;;11.56;40.61;101630.03;4956554;28;20134;-68
2021/04/16 13:09:02;;;;;;;8.18;1.70;;;;;;;11.26;40.70;101623.56;4969677;28;20062;-69
2021/04/16 13:11:29;;;;;;;5.68;1.60;;;;;;;11.37;40.94;101621.28;4963925;28;20073;-69
2021/04/16 13:13:56;;;;;;;4.53;1.23;;;;;;;11.73;40.22;101608.13;4974343;28;20579;-68
2021/04/16 13:16:23;;;;;;;3.30;1.25;;;;;;;11.41;40.62;101614.94;4998345;28;20121;-68
2021/04/16 13:18:55;;;;;;;3.38;1.10;;;;;;;11.95;39.64;101610.63;4992226;28;20719;-69
2021/04/16 13:21:27;;;;;;;5.40;1.60;;;;;;;11.78;38.56;101610.53;4989632;28;20061;-69
2021/04/16 13:23:57;;;;;;;5.88;1.30;;;;;;;11.21;38.11;101612.34;4994577;28;20043;-67
2021/04/16 13:26:25;;;;;;;4.88;1.52;;;;;;;10.86;37.91;101615.66;4954164;28;20149;-67
2021/04/16 13:28:53;;;;;;;5.28;1.30;;;;;;;10.94;38.02;101607.41;4970052;28;20131;-69
2021/04/16 13:31:20;;;;;;;9.15;1.30;;;;;;;11.36;38.42;101599.31;4986478;28;20100;-67
2021/04/16 13:33:48;;;;;;;8.65;1.70;;;;;;;11.95;38.16;101601.84;4987390;28;20161;-68
2021/04/16 13:36:17;;;;;;;5.80;1.42;;;;;;;10.96;41.05;101599.44;4969915;28;20141;-69
2021/04/16 13:38:46;;;;;;;8.02;1.67;;;;;;;11.28;40.97;101601.47;4969126;28;20046;-68
2021/04/16 13:41:12;;;;;;;5.10;1.38;;;;;;;11.19;41.40;101607.16;4987194;28;20046;-67
2021/04/16 13:43:39;;;;;;;4.88;1.20;;;;;;;10.90;40.37;101609.34;4970539;28;20078;-69
2021/04/16 13:46:15;;;;;;;4.60;1.40;;;;;;;10.85;40.67;101605.16;4972924;28;20149;-69
2021/04/16 13:48:45;;;;;;;4.75;1.30;;;;;;;10.65;41.14;101604.28;4972162;28;20129;-67
2021/04/16 13:51:13;;;;;;;6.90;1.80;;;;;;;10.81;41.28;101598.34;4972607;28;20050;-69
2021/04/16 13:53:40;;;;;;;8.00;1.48;;;;;;;10.88;40.71;101589.25;4977733;28;20061;-68